Time;durP1;ratioP1;P1;durP2;ratioP2;P2;SDS_P1;SDS_P2;PMS_P1;PMS_P2;Temp;Humidity;BMP_temperature;BMP_pressure;BME280_temperature;BME280_humidity;BME280_pressure;Samples;Min_cycle;Max_cycle;Signal;HPM_P1;HPM_P2
2022/06/02 00:00:20;;;;;;;;;11.00;11.00;;;;;12.24;65.75;101981.56;5030097;28;10483;-64
2022/06/02 00:03:17;;;;;;;;;15.00;12.50;;;;;12.21;65.76;101981.91;5031724;28;10334;-66
2022/06/02 00:06:02;;;;;;;;;11.00;11.00;;;;;12.20;66.15;101986.47;5031914;28;11185;-67
2022/06/02 00:08:53;;;;;;;;;12.00;10.75;;;;;12.18;66.04;101991.19;5031768;28;10420;-66
2022/06/02 00:11:38;;;;;;;;;14.50;12.00;;;;;12.19;66.33;101992.03;5032033;28;10657;-66
2022/06/02 00:14:10;;;;;;;;;13.00;12.00;;;;;12.17;66.09;101997.63;5031940;28;10577;-66
2022/06/02 00:16:59;;;;;;;;;16.50;14.00;;;;;12.17;66.04;101989.53;5031088;28;10458;-67
2022/06/02 00:19:42;;;;;;;;;11.75;10.75;;;;;12.16;66.24;101989.72;5031758;28;10545;-66
2022/06/02 00:22:17;;;;;;;;;12.00;12.00;;;;;12.12;66.33;101991.94;5031802;28;10477;-65
2022/06/02 00:25:06;;;;;;;;;14.25;12.00;;;;;12.09;66.23;102000.38;5032429;28;11165;-67
2022/06/02 00:27:43;;;;;;;;;13.25;12.00;;;;;12.09;66.25;101994.97;5031892;28;10624;-66
2022/06/02 00:30:32;;;;;;;;;13.00;11.75;;;;;12.05;66.33;101999.88;5029381;28;10473;-67
2022/06/02 00:33:21;;;;;;;;;12.00;12.00;;;;;12.03;66.39;102001.06;5027515;28;10513;-67
2022/06/02 00:35:59;;;;;;;;;16.50;12.75;;;;;12.00;66.28;102002.25;5031834;28;10392;-66
2022/06/02 00:38:34;;;;;;;;;12.00;10.50;;;;;11.97;66.55;102002.59;5046217;28;10471;-65
2022/06/02 00:41:33;;;;;;;;;10.50;10.50;;;;;11.94;66.85;102000.25;5031494;28;10349;-63
2022/06/02 00:44:32;;;;;;;;;16.50;14.50;;;;;11.93;66.87;102008.53;5017262;28;10496;-63
2022/06/02 00:47:04;;;;;;;;;13.25;11.75;;;;;11.91;66.92;102008.72;5031146;28;10388;-63
2022/06/02 00:49:55;;;;;;;;;15.00;13.00;;;;;11.88;66.52;102009.06;5029185;28;11145;-63
2022/06/02 00:52:32;;;;;;;;;11.00;11.00;;;;;11.86;66.81;102006.50;5031099;28;10417;-66
2022/06/02 00:58:52;;;;;;;;;16.00;15.25;;;;;11.82;66.87;102015.94;5018338;28;10535;-64
2022/06/02 01:01:26;;;;;;;;;13.00;12.25;;;;;11.80;66.80;102012.59;5027497;28;10453;-64
2022/06/02 01:03:56;;;;;;;;;16.75;16.00;;;;;11.79;66.70;102019.00;5030734;28;10552;-63
2022/06/02 01:06:44;;;;;;;;;13.50;11.75;;;;;11.76;66.33;102011.25;5030807;28;10715;-62
2022/06/02 01:09:19;;;;;;;;;16.25;15.75;;;;;11.75;66.49;102019.50;5025588;28;10563;-63
2022/06/02 01:12:01;;;;;;;;;14.75;13.00;;;;;11.72;66.64;102018.00;5030615;28;10703;-62
2022/06/02 01:14:52;;;;;;;;;13.00;11.25;;;;;11.71;66.67;102019.03;5030770;28;10521;-65
2022/06/02 01:17:36;;;;;;;;;11.75;10.75;;;;;11.69;66.76;102023.75;5030608;28;10694;-66
2022/06/02 01:20:18;;;;;;;;;14.50;12.00;;;;;11.69;66.87;102017.50;5030537;28;10653;-64
2022/06/02 01:23:21;;;;;;;;;12.50;11.75;;;;;11.70;66.72;102020.03;5030098;28;10629;-66
2022/06/02 01:25:58;;;;;;;;;12.00;12.00;;;;;11.70;67.03;102017.31;5030398;28;10479;-66
2022/06/02 01:28:32;;;;;;;;;11.25;11.25;;;;;11.67;66.75;102014.13;5030493;28;10481;-65
2022/06/02 01:31:12;;;;;;;;;11.50;11.00;;;;;11.66;66.65;102012.44;5030508;28;10624;-66
2022/06/02 01:33:51;;;;;;;;;14.00;12.75;;;;;11.61;66.87;102019.22;5030436;28;10624;-66
2022/06/02 01:36:45;;;;;;;;;13.50;11.25;;;;;11.58;66.67;102024.09;5030991;28;10529;-66
2022/06/02 01:39:32;;;;;;;;;14.25;13.50;;;;;11.55;66.77;102028.00;5030156;28;10480;-65
2022/06/02 01:42:35;;;;;;;;;14.75;13.00;;;;;11.52;66.91;102022.09;5029865;28;10487;-66
2022/06/02 01:45:27;;;;;;;;;14.50;13.00;;;;;11.51;67.41;102020.44;5030185;28;10672;-65
2022/06/02 01:48:29;;;;;;;;;14.25;13.25;;;;;11.51;66.96;102025.81;5030133;28;10473;-66
2022/06/02 01:51:15;;;;;;;;;11.75;11.75;;;;;11.49;67.12;102027.84;5030152;28;10485;-64
2022/06/02 01:53:44;;;;;;;;;14.75;12.00;;;;;11.46;66.90;102020.06;5029970;28;10538;-66
2022/06/02 01:56:30;;;;;;;;;13.25;11.00;;;;;11.45;67.05;102021.09;5020636;28;10389;-64
2022/06/02 01:59:13;;;;;;;;;11.50;10.75;;;;;11.43;66.66;102017.75;5028412;28;10536;-64
2022/06/02 02:02:06;;;;;;;;;13.25;13.25;;;;;11.43;66.97;102023.13;5029830;28;11320;-64
2022/06/02 02:04:51;;;;;;;;;13.00;11.25;;;;;11.41;67.07;102020.59;5029852;28;10461;-63
2022/06/02 02:07:44;;;;;;;;;11.25;11.25;;;;;11.38;67.30;102018.22;5029942;28;10564;-66
2022/06/02 02:10:29;;;;;;;;;15.25;14.25;;;;;11.36;66.99;102020.28;5029616;28;10733;-65
2022/06/02 02:13:25;;;;;;;;;15.00;14.00;;;;;11.35;67.11;102026.69;5028098;28;10629;-66
2022/06/02 02:16:08;;;;;;;;;13.00;12.75;;;;;11.31;67.24;102015.41;5029542;28;10653;-64
2022/06/02 02:19:09;;;;;;;;;17.50;14.75;;;;;11.28;66.79;102022.97;5025769;28;10444;-66
2022/06/02 02:21:52;;;;;;;;;12.25;11.25;;;;;11.25;66.80;102012.53;5025187;28;10616;-65
2022/06/02 02:25:04;;;;;;;;;17.25;15.50;;;;;11.24;66.90;102018.94;5029719;28;10558;-66
2022/06/02 02:28:03;;;;;;;;;13.25;11.50;;;;;11.23;67.40;102018.09;5029395;28;10628;-66
2022/06/02 02:30:53;;;;;;;;;12.00;10.75;;;;;11.21;66.96;102017.41;5027145;28;10556;-64
2022/06/02 02:33:35;;;;;;;;;13.00;13.00;;;;;11.21;67.74;102022.81;5030003;28;10536;-65
2022/06/02 02:36:27;;;;;;;;;16.25;15.00;;;;;11.20;67.49;102026.53;5029539;28;10727;-65
2022/06/02 02:39:03;;;;;;;;;12.75;12.75;;;;;11.21;67.87;102020.09;5028772;28;11672;-66
2022/06/02 02:41:46;;;;;;;;;11.50;10.00;;;;;11.21;67.73;102021.97;5022836;28;10728;-66
2022/06/02 02:44:19;;;;;;;;;16.25;14.25;;;;;11.17;67.66;102013.38;5029450;28;10704;-65
2022/06/02 02:47:04;;;;;;;;;15.00;12.25;;;;;11.18;67.95;102016.91;5029945;28;10708;-65
2022/06/02 02:49:42;;;;;;;;;20.75;17.50;;;;;11.16;68.12;102017.09;5029492;28;10807;-66
2022/06/02 02:52:36;;;;;;;;;11.00;10.00;;;;;11.17;67.89;102026.00;5030156;28;10926;-66
2022/06/02 02:55:16;;;;;;;;;15.25;15.25;;;;;11.14;67.99;102021.81;5029121;28;10551;-66
2022/06/02 02:58:22;;;;;;;;;13.75;13.75;;;;;11.09;67.57;102018.75;5033350;28;10722;-66
2022/06/02 03:01:02;;;;;;;;;15.50;13.25;;;;;11.06;67.67;102022.66;5033343;28;10727;-65
2022/06/02 03:03:46;;;;;;;;;18.00;14.00;;;;;11.02;67.59;102020.44;5033141;28;10722;-65
2022/06/02 03:06:15;;;;;;;;;24.50;19.00;;;;;11.01;67.94;102027.69;5032952;28;10679;-66
2022/06/02 03:09:08;;;;;;;;;9.75;9.75;;;;;10.97;67.80;102033.59;5032518;28;10883;-65
2022/06/02 03:12:02;;;;;;;;;19.00;17.25;;;;;10.96;68.00;102034.59;5031921;28;10725;-66
2022/06/02 03:14:55;;;;;;;;;16.75;16.75;;;;;10.95;67.50;102044.53;5032790;28;10711;-66
2022/06/02 03:17:43;;;;;;;;;19.25;19.25;;;;;10.93;68.02;102049.25;5032764;28;11724;-63
2022/06/02 03:20:21;;;;;;;;;21.25;20.25;;;;;10.91;68.18;102037.81;5027671;28;11031;-65
2022/06/02 03:23:23;;;;;;;;;16.75;14.25;;;;;10.89;67.68;102045.19;5032606;28;11678;-64
2022/06/02 03:25:57;;;;;;;;;24.25;18.75;;;;;10.86;68.19;102045.56;4996167;28;10779;-66
2022/06/02 03:28:55;;;;;;;;;14.50;14.00;;;;;10.85;68.05;102043.84;5031402;28;10907;-65
2022/06/02 03:31:46;;;;;;;;;17.75;13.25;;;;;10.82;67.97;102050.41;5028390;28;10933;-66
2022/06/02 03:34:37;;;;;;;;;22.25;14.75;;;;;10.80;68.06;102052.44;5033057;28;11270;-67
2022/06/02 03:37:20;;;;;;;;;16.00;13.75;;;;;10.79;67.70;102055.28;5032692;28;10874;-67
2022/06/02 03:40:01;;;;;;;;;14.75;14.75;;;;;10.78;67.65;102056.31;5031612;28;10715;-67
2022/06/02 03:42:39;;;;;;;;;23.00;20.00;;;;;10.76;67.60;102056.47;5024323;28;11645;-67
2022/06/02 03:45:38;;;;;;;;;17.00;15.50;;;;;10.75;67.71;102062.03;5032374;28;10989;-67
2022/06/02 03:48:11;;;;;;;;;13.50;13.50;;;;;10.74;67.91;102058.50;5032204;28;10901;-67
2022/06/02 03:51:02;;;;;;;;;18.25;15.00;;;;;10.75;68.00;102054.78;5033000;28;10932;-67
2022/06/02 03:53:48;;;;;;;;;15.00;14.25;;;;;10.75;67.66;102060.16;5042236;28;10859;-67
2022/06/02 03:56:27;;;;;;;;;17.25;16.50;;;;;10.74;68.61;102061.19;5029779;28;10954;-67
2022/06/02 03:59:07;;;;;;;;;16.25;15.00;;;;;10.75;68.14;102065.56;5032285;28;11561;-67
2022/06/02 04:01:41;;;;;;;;;17.50;16.25;;;;;10.76;68.24;102066.41;5025686;28;11748;-67
2022/06/02 04:04:11;;;;;;;;;19.00;14.50;;;;;10.76;68.00;102069.94;5030413;28;10982;-67
2022/06/02 04:06:59;;;;;;;;;19.00;14.00;;;;;10.78;67.82;102067.94;5032096;28;11010;-67
2022/06/02 04:09:36;;;;;;;;;17.50;17.50;;;;;10.78;68.18;102072.47;5031967;28;10793;-67
2022/06/02 04:15:43;;;;;;;;;15.00;14.50;;;;;10.84;68.44;102077.19;5028543;28;10928;-67
2022/06/02 04:18:29;;;;;;;;;17.00;17.00;;;;;10.89;69.04;102078.34;5028499;28;11022;-67
2022/06/02 04:21:24;;;;;;;;;13.75;13.75;;;;;10.94;68.65;102079.72;5031729;28;10942;-67
2022/06/02 04:23:54;;;;;;;;;16.25;15.75;;;;;10.97;68.60;102080.22;5032852;28;10881;-65
2022/06/02 04:26:41;;;;;;;;;18.25;14.50;;;;;11.01;69.01;102088.81;5033110;28;11718;-67
2022/06/02 04:29:07;;;;;;;;;20.00;18.50;;;;;11.01;68.77;102092.34;5032198;28;10868;-66
2022/06/02 04:31:58;;;;;;;;;23.75;19.75;;;;;11.03;68.94;102094.91;5033472;28;11587;-65
2022/06/02 04:34:35;;;;;;;;;18.25;18.25;;;;;11.04;68.71;102099.28;5031299;28;10877;-66
2022/06/02 04:37:20;;;;;;;;;20.25;17.25;;;;;11.06;69.22;102099.94;5031137;28;10853;-66
2022/06/02 04:39:57;;;;;;;;;14.50;14.00;;;;;11.08;68.59;102103.31;5023148;28;10873;-67
2022/06/02 04:42:53;;;;;;;;;20.25;20.25;;;;;11.09;68.73;102099.59;5030751;28;10879;-67
2022/06/02 04:45:46;;;;;;;;;17.75;16.00;;;;;11.10;69.11;102093.19;5031939;28;10899;-67
2022/06/02 04:49:03;;;;;;;;;17.25;14.00;;;;;11.14;69.20;102100.81;5030239;28;10640;-66
2022/06/02 04:51:53;;;;;;;;;21.00;19.00;;;;;11.18;69.42;102101.31;4989600;28;10790;-66
2022/06/02 04:54:50;;;;;;;;;19.25;16.00;;;;;11.23;69.28;102104.34;4989444;28;10836;-66
2022/06/02 04:57:29;;;;;;;;;17.00;11.50;;;;;11.29;69.48;102108.22;5024675;28;10858;-66
2022/06/02 05:00:01;;;;;;;;;16.25;12.75;;;;;11.36;69.43;102120.84;5030839;28;10703;-66
2022/06/02 05:03:04;;;;;;;;;16.00;15.50;;;;;11.44;69.17;102124.56;5030113;28;10489;-66
2022/06/02 05:06:00;;;;;;;;;17.25;15.00;;;;;11.49;69.04;102120.34;5026489;28;10543;-66
2022/06/02 05:08:41;;;;;;;;;12.25;12.25;;;;;11.56;69.34;102125.91;5030742;28;10643;-65
2022/06/02 05:11:27;;;;;;;;;12.50;12.50;;;;;11.63;69.08;102117.00;5029958;28;10628;-64
2022/06/02 05:14:15;;;;;;;;;12.50;12.50;;;;;11.69;69.03;102120.00;5030786;28;10470;-63
2022/06/02 05:16:59;;;;;;;;;10.00;10.00;;;;;11.77;69.40;102117.31;5030224;28;10569;-65
2022/06/02 05:19:34;;;;;;;;;10.00;10.00;;;;;11.83;69.36;102120.19;5029996;28;10304;-66
2022/06/02 05:22:04;;;;;;;;;13.25;11.00;;;;;11.91;68.80;102119.34;5030523;28;10980;-66
2022/06/02 05:24:55;;;;;;;;;11.50;10.00;;;;;12.02;68.94;102126.22;5030872;28;10323;-68
2022/06/02 05:27:29;;;;;;;;;11.25;11.25;;;;;12.17;69.32;102129.91;5030326;28;10327;-66
2022/06/02 05:30:02;;;;;;;;;8.25;8.25;;;;;12.37;69.64;102131.19;5030770;28;10220;-66
2022/06/02 05:32:47;;;;;;;;;9.25;9.25;;;;;12.68;69.24;102132.22;5030127;28;10288;-65
2022/06/02 05:35:41;;;;;;;;;8.00;7.00;;;;;13.00;68.86;102136.59;5029618;28;10970;-63
2022/06/02 05:38:29;;;;;;;;;5.25;5.25;;;;;13.32;67.83;102139.09;5029829;28;10164;-64
2022/06/02 05:40:57;;;;;;;;;7.00;7.00;;;;;13.62;66.91;102144.63;5026277;28;9997;-65
2022/06/02 05:43:42;;;;;;;;;7.00;7.00;;;;;13.82;65.32;102137.69;5028708;28;10462;-64
2022/06/02 05:46:35;;;;;;;;;8.25;8.25;;;;;13.95;64.26;102142.47;5026061;28;9838;-64
2022/06/02 05:49:10;;;;;;;;;10.75;8.25;;;;;14.07;63.56;102140.97;5030194;28;9921;-65
2022/06/02 05:52:05;;;;;;;;;7.50;7.00;;;;;14.20;63.41;102144.91;5030365;28;9815;-64
2022/06/02 05:55:15;;;;;;;;;6.75;5.75;;;;;14.32;62.49;102151.53;5029329;28;9707;-65
2022/06/02 05:58:11;;;;;;;;;6.00;4.50;;;;;14.32;62.05;102154.25;5022880;28;9544;-65
2022/06/02 06:01:05;;;;;;;;;10.00;7.00;;;;;14.29;61.58;102160.03;5017582;28;9587;-65
2022/06/02 06:03:57;;;;;;;;;5.00;5.00;;;;;14.24;61.75;102151.63;5030146;28;10539;-66
2022/06/02 06:06:48;;;;;;;;;6.00;6.00;;;;;14.14;61.42;102151.91;5026129;28;9581;-65
2022/06/02 06:09:22;;;;;;;;;3.75;3.75;;;;;14.03;61.43;102153.22;5030172;28;9653;-62
2022/06/02 06:12:38;;;;;;;;;5.75;3.75;;;;;13.96;61.53;102156.81;5030178;28;9602;-65
2022/06/02 06:15:15;;;;;;;;;5.00;4.00;;;;;13.89;61.48;102154.00;5030296;28;9744;-64
2022/06/02 06:18:00;;;;;;;;;3.50;3.25;;;;;13.87;61.37;102147.13;5030316;28;10397;-62
2022/06/02 06:20:50;;;;;;;;;3.00;3.00;;;;;13.85;61.50;102161.69;5027270;28;10318;-65
2022/06/02 06:23:31;;;;;;;;;2.00;2.00;;;;;13.82;61.50;102153.91;5030591;28;9531;-64
2022/06/02 06:26:12;;;;;;;;;3.00;3.00;;;;;13.81;61.44;102154.09;5030191;28;9509;-65
2022/06/02 06:29:02;;;;;;;;;1.00;1.00;;;;;13.77;61.53;102150.94;5033600;28;10200;-65
2022/06/02 06:31:58;;;;;;;;;2.25;2.25;;;;;13.79;61.49;102156.16;5034564;28;9443;-65
2022/06/02 06:34:45;;;;;;;;;3.75;2.75;;;;;13.67;61.67;102153.03;5033758;28;9686;-65
2022/06/02 06:37:49;;;;;;;;;3.25;3.00;;;;;13.58;61.76;102156.84;5033923;28;9714;-65
2022/06/02 06:40:34;;;;;;;;;2.75;2.75;;;;;13.50;61.86;102144.22;5027613;28;9751;-65
2022/06/02 06:43:21;;;;;;;;;3.50;3.50;;;;;13.45;61.82;102152.06;5034164;28;9614;-65
2022/06/02 06:46:07;;;;;;;;;2.00;2.00;;;;;13.41;62.01;102155.28;5034229;28;9754;-65
2022/06/02 06:48:42;;;;;;;;;2.00;2.00;;;;;13.36;62.09;102162.06;5032027;28;9664;-65
2022/06/02 06:51:38;;;;;;;;;2.75;2.75;;;;;13.37;62.30;102165.63;5034642;28;9768;-65
2022/06/02 06:54:23;;;;;;;;;4.50;4.50;;;;;13.45;62.33;102165.56;5033523;28;9603;-65
2022/06/02 06:56:57;;;;;;;;;2.50;2.50;;;;;13.52;62.10;102155.69;5033539;28;9848;-65
2022/06/02 06:59:45;;;;;;;;;8.25;6.00;;;;;13.54;61.43;102159.06;5032433;28;9750;-65
2022/06/02 07:02:43;;;;;;;;;4.00;4.00;;;;;13.59;61.71;102155.81;5030559;28;9771;-65
2022/06/02 07:05:29;;;;;;;;;6.75;5.50;;;;;13.64;61.25;102163.38;5028399;28;9750;-64
2022/06/02 07:08:04;;;;;;;;;5.25;5.25;;;;;13.70;61.16;102168.91;5033492;28;9819;-64
2022/06/02 07:10:43;;;;;;;;;3.50;2.00;;;;;13.79;61.09;102172.38;5033492;28;10518;-64
2022/06/02 07:13:26;;;;;;;;;4.50;3.00;;;;;13.93;60.87;102182.41;5034443;28;10299;-64
2022/06/02 07:16:08;;;;;;;;;2.75;2.75;;;;;14.07;60.77;102186.16;5033650;28;9687;-64
2022/06/02 07:19:01;;;;;;;;;3.00;3.00;;;;;14.17;60.16;102180.47;5032492;28;9598;-66
2022/06/02 07:21:52;;;;;;;;;3.00;3.00;;;;;14.20;59.59;102186.38;5031680;28;9601;-65
2022/06/02 07:24:41;;;;;;;;;2.25;1.25;;;;;14.20;58.91;102189.06;5033549;28;9613;-66
2022/06/02 07:27:36;;;;;;;;;5.50;5.25;;;;;14.16;58.31;102197.75;5031479;28;9393;-64
2022/06/02 07:30:24;;;;;;;;;6.00;4.50;;;;;14.15;58.29;102188.78;5033475;28;9589;-66
2022/06/02 07:33:41;;;;;;;;;1.67;1.67;;;;;14.19;57.90;102192.81;5033291;28;9494;-65
2022/06/02 07:36:23;;;;;;;;;2.33;2.33;;;;;14.23;57.56;102204.97;4995765;28;9451;-66
2022/06/02 07:39:23;;;;;;;;;1.00;1.00;;;;;14.30;57.05;102207.75;5031699;28;9517;-65
2022/06/02 07:42:09;;;;;;;;;1.00;1.00;;;;;14.30;57.24;102207.75;5033351;28;9429;-66
2022/06/02 07:45:07;;;;;;;;;1.00;1.00;;;;;14.32;57.02;102208.41;5033039;28;9463;-65
2022/06/02 07:47:44;;;;;;;;;2.50;1.50;;;;;14.30;56.77;102205.91;5003839;28;9399;-63
2022/06/02 07:50:27;;;;;;;;;1.00;1.00;;;;;14.35;56.42;102202.63;5033267;28;9399;-66
2022/06/02 07:53:20;;;;;;;;;1.00;0.00;;;;;14.44;56.10;102211.50;5033000;28;9502;-64
2022/06/02 07:56:01;;;;;;;;;2.00;2.00;;;;;14.40;55.32;102210.22;5032925;28;9223;-64
2022/06/02 07:58:50;;;;;;;;;4.00;3.50;;;;;14.39;55.14;102203.09;5032979;28;9305;-64
2022/06/02 08:01:17;;;;;;;;;3.00;3.00;;;;;14.43;54.72;102209.84;5025746;28;9540;-65
2022/06/02 08:03:50;;;;;;;;;2.00;2.00;;;;;14.38;54.69;102212.25;5032965;28;9555;-64
2022/06/02 08:06:25;;;;;;;;;4.50;2.50;;;;;14.39;55.08;102214.78;5024635;28;9590;-64
2022/06/02 08:09:39;;;;;;;;;3.00;3.00;;;;;14.47;55.01;102222.81;5031373;28;9543;-64
2022/06/02 08:12:11;;;;;;;;;5.50;3.00;;;;;14.58;54.71;102224.25;5032916;28;9402;-64
2022/06/02 08:14:59;;;;;;;;;8.00;5.75;;;;;14.65;54.28;102229.75;5032690;28;9524;-64
2022/06/02 08:18:02;;;;;;;;;6.67;3.00;;;;;14.70;54.52;102221.91;5032576;28;9481;-64
2022/06/02 08:20:46;;;;;;;;;2.00;2.00;;;;;14.78;54.09;102225.34;5032456;28;9390;-64
2022/06/02 08:23:24;;;;;;;;;2.00;2.00;;;;;14.83;53.66;102227.53;5032287;28;9521;-64
2022/06/02 08:26:03;;;;;;;;;2.67;2.67;;;;;14.90;53.83;102227.59;5027739;28;9258;-65
2022/06/02 08:29:03;;;;;;;;;4.00;3.00;;;;;15.00;54.22;102222.72;5032202;28;9305;-64
2022/06/02 08:32:15;;;;;;;;;2.67;2.67;;;;;15.01;53.86;102233.38;5024076;28;9421;-64
2022/06/02 08:34:54;;;;;;;;;3.00;2.67;;;;;15.07;53.88;102238.06;5009623;28;9405;-65
2022/06/02 08:37:32;;;;;;;;;3.33;3.00;;;;;15.11;53.88;102241.22;5031898;28;9317;-64
2022/06/02 08:41:00;;;;;;;;;3.00;3.00;;;;;15.04;53.28;102249.28;5031856;28;9364;-64
2022/06/02 08:44:00;;;;;;;;;3.00;3.00;;;;;14.95;53.49;102249.56;5028330;28;9380;-63
2022/06/02 08:46:51;;;;;;;;;3.33;3.00;;;;;14.87;53.56;102236.97;5029755;28;9302;-63
2022/06/02 08:49:36;;;;;;;;;2.00;2.00;;;;;14.78;53.28;102241.63;5031532;28;9313;-66
2022/06/02 08:52:42;;;;;;;;;1.67;1.67;;;;;14.71;52.07;102239.88;5030948;28;9413;-64
2022/06/02 08:55:49;;;;;;;;;2.00;2.00;;;;;14.70;52.20;102236.28;5031755;28;9309;-66
2022/06/02 08:58:35;;;;;;;;;1.67;1.00;;;;;14.83;51.88;102239.19;5028329;28;9223;-64
2022/06/02 09:01:38;;;;;;;;;5.25;5.25;;;;;15.05;50.58;102247.41;5031678;28;9293;-64
2022/06/02 09:04:47;;;;;;;;;3.00;3.00;;;;;15.29;50.85;102243.53;5032294;28;9620;-64
2022/06/02 09:07:45;;;;;;;;;2.67;2.67;;;;;15.43;50.99;102249.91;5031836;28;9371;-64
2022/06/02 09:10:34;;;;;;;;;2.00;2.00;;;;;15.44;50.37;102246.19;5031736;28;9247;-64
2022/06/02 09:13:47;;;;;;;;;1.00;1.00;;;;;15.40;51.42;102253.03;5031631;28;9160;-64
2022/06/02 09:16:21;;;;;;;;;5.33;4.33;;;;;15.44;51.42;102252.47;5025942;28;9150;-65
2022/06/02 09:19:09;;;;;;;;;2.33;2.33;;;;;15.40;52.03;102255.75;5030773;28;9233;-65
2022/06/02 09:22:10;;;;;;;;;2.33;2.33;;;;;15.34;52.56;102255.47;5031191;28;9351;-66
2022/06/02 09:25:18;;;;;;;;;3.00;2.33;;;;;15.27;52.74;102257.28;5012971;28;9319;-65
2022/06/02 09:27:56;;;;;;;;;8.00;5.33;;;;;15.15;51.83;102252.50;5031362;28;9316;-65
2022/06/02 09:30:37;;;;;;;;;2.33;2.33;;;;;15.05;52.50;102253.66;5031248;28;9223;-65
2022/06/02 09:33:34;;;;;;;;;2.00;2.00;;;;;15.00;52.50;102250.69;5031375;28;9162;-64
2022/06/02 09:36:09;;;;;;;;;4.67;3.00;;;;;14.98;52.50;102254.59;5030653;28;9078;-63
2022/06/02 09:39:01;;;;;;;;;6.50;6.50;;;;;15.01;52.84;102246.09;5030950;28;9946;-64
2022/06/02 09:41:45;;;;;;;;;1.33;1.33;;;;;15.23;52.24;102249.69;5023878;28;9462;-65
2022/06/02 09:44:21;;;;;;;;;3.00;3.00;;;;;15.39;52.27;102254.88;5030688;28;9094;-65
2022/06/02 09:47:13;;;;;;;;;2.00;2.00;;;;;15.64;51.21;102255.38;5031310;28;9307;-65
2022/06/02 09:50:17;;;;;;;;;2.33;2.00;;;;;15.87;50.24;102263.34;5030617;28;9805;-65
2022/06/02 09:53:17;;;;;;;;;5.00;3.00;;;;;15.96;49.60;102266.78;5027908;28;9337;-65
2022/06/02 09:56:13;;;;;;;;;2.00;2.00;;;;;15.87;49.09;102259.81;5030492;28;9788;-65
2022/06/02 09:58:53;;;;;;;;;3.00;3.00;;;;;15.83;49.72;102262.91;5029434;28;9235;-65
2022/06/02 10:01:32;;;;;;;;;2.00;2.00;;;;;15.90;48.97;102262.97;5028548;28;9840;-64
2022/06/02 10:04:10;;;;;;;;;2.00;2.00;;;;;16.14;48.92;102247.31;5030457;28;9074;-64
2022/06/02 10:07:11;;;;;;;;;4.33;3.00;;;;;16.37;48.65;102253.34;5029925;28;9227;-64
2022/06/02 10:10:11;;;;;;;;;6.33;6.00;;;;;16.51;48.15;102248.81;5030276;28;9048;-64
2022/06/02 10:13:00;;;;;;;;;4.33;2.33;;;;;16.53;48.48;102242.16;5030080;28;9235;-64
2022/06/02 10:15:50;;;;;;;;;6.00;3.00;;;;;16.44;47.71;102243.31;5029629;28;8991;-64
2022/06/02 10:18:44;;;;;;;;;2.00;2.00;;;;;16.22;48.26;102237.13;5024435;28;9153;-64
2022/06/02 10:21:46;;;;;;;;;5.00;2.00;;;;;16.10;48.58;102241.41;5029451;28;9066;-64
2022/06/02 10:24:51;;;;;;;;;1.33;1.33;;;;;15.99;48.82;102239.22;5029868;28;9176;-65
2022/06/02 10:27:57;;;;;;;;;2.00;2.00;;;;;15.98;49.67;102243.00;5030104;28;9107;-64
2022/06/02 10:31:10;;;;;;;;;2.00;2.00;;;;;15.94;49.62;102241.69;5030471;28;9145;-63
2022/06/02 10:34:19;;;;;;;;;2.00;2.00;;;;;15.89;50.53;102238.75;4993023;28;9874;-66
2022/06/02 10:37:11;;;;;;;;;3.67;3.67;;;;;15.85;50.49;102241.00;5030431;28;9158;-64
2022/06/02 10:40:05;;;;;;;;;2.67;2.00;;;;;15.79;50.82;102245.31;5030415;28;9231;-64
2022/06/02 10:43:09;;;;;;;;;3.67;3.33;;;;;15.75;50.54;102238.59;5030515;28;9077;-65
2022/06/02 10:46:20;;;;;;;;;6.67;3.00;;;;;15.76;50.64;102240.28;5030490;28;9045;-64
2022/06/02 10:49:00;;;;;;;;;4.00;4.00;;;;;15.90;50.37;102240.41;5022903;28;9236;-65
2022/06/02 10:51:45;;;;;;;;;4.00;4.00;;;;;16.04;50.13;102232.19;5030203;28;9295;-65
2022/06/02 10:54:33;;;;;;;;;4.00;3.00;;;;;16.24;48.96;102231.47;5029735;28;9390;-65
2022/06/02 10:57:37;;;;;;;;;3.00;3.00;;;;;16.43;48.93;102232.66;5024615;28;9220;-65
2022/06/02 11:00:20;;;;;;;;;6.33;6.33;;;;;16.70;47.87;102231.78;5030435;28;9069;-65
2022/06/02 11:03:30;;;;;;;;;6.00;6.00;;;;;16.95;46.23;102228.59;5030071;28;9213;-65
2022/06/02 11:06:09;;;;;;;;;8.00;6.00;;;;;16.98;46.31;102225.47;5029914;28;9293;-65
2022/06/02 11:09:12;;;;;;;;;2.67;2.67;;;;;16.99;47.02;102219.81;5028445;28;9139;-66
2022/06/02 11:12:16;;;;;;;;;7.67;6.00;;;;;16.98;45.88;102220.03;5027977;28;8920;-64
2022/06/02 11:15:09;;;;;;;;;3.33;3.33;;;;;16.79;46.52;102218.91;5032407;28;9182;-65
2022/06/02 11:18:09;;;;;;;;;7.00;6.00;;;;;16.69;47.15;102205.66;5033202;28;9056;-66
2022/06/02 11:21:20;;;;;;;;;3.00;3.00;;;;;16.59;48.21;102212.47;5033650;28;9689;-65
2022/06/02 11:24:02;;;;;;;;;6.00;4.00;;;;;16.48;48.17;102203.00;5030720;28;9166;-66
2022/06/02 11:26:59;;;;;;;;;3.33;3.33;;;;;16.45;47.96;102203.44;5033384;28;9076;-65
2022/06/02 11:29:44;;;;;;;;;2.67;2.67;;;;;16.43;47.98;102195.44;5027749;28;8976;-65
2022/06/02 11:32:26;;;;;;;;;0.00;0.00;;;;;16.41;47.55;102188.56;5033264;28;8915;-65
2022/06/02 11:35:23;;;;;;;;;5.00;3.00;;;;;16.42;47.65;102185.63;5033253;28;8813;-65
2022/06/02 11:37:56;;;;;;;;;5.33;5.33;;;;;16.69;47.79;102197.50;5033525;28;9065;-65
2022/06/02 11:40:59;;;;;;;;;6.00;6.00;;;;;16.86;47.57;102197.19;5028184;28;8994;-65
2022/06/02 11:44:04;;;;;;;;;5.67;5.67;;;;;17.10;47.25;102191.19;5033180;28;8998;-65
2022/06/02 11:46:53;;;;;;;;;6.67;6.67;;;;;17.32;47.79;102196.47;5025603;28;9078;-65
2022/06/02 11:50:08;;;;;;;;;5.33;5.33;;;;;17.37;47.05;102193.97;5031594;28;8928;-66
2022/06/02 11:52:52;;;;;;;;;6.33;6.33;;;;;17.34;47.19;102191.66;5032563;28;8935;-65
2022/06/02 11:55:32;;;;;;;;;3.67;3.67;;;;;17.50;47.39;102194.00;5032047;28;9005;-65
2022/06/02 11:58:42;;;;;;;;;5.00;5.00;;;;;17.63;46.49;102190.47;5031235;28;9067;-66
2022/06/02 12:01:40;;;;;;;;;2.50;2.50;;;;;17.64;47.21;102184.81;4997634;28;9008;-65
2022/06/02 12:04:10;;;;;;;;;5.25;3.50;;;;;17.60;46.46;102182.72;5032373;28;8825;-65
2022/06/02 12:07:13;;;;;;;;;5.33;5.33;;;;;17.64;46.24;102190.25;5032013;28;8839;-65
2022/06/02 12:10:01;;;;;;;;;4.00;3.33;;;;;17.74;46.04;102193.44;5032311;28;8924;-65
2022/06/02 12:12:56;;;;;;;;;4.75;4.75;;;;;17.79;45.92;102188.19;5032209;28;8916;-66
2022/06/02 12:15:50;;;;;;;;;3.25;3.25;;;;;17.81;45.88;102200.75;5021869;28;8907;-65
2022/06/02 12:18:26;;;;;;;;;7.33;7.33;;;;;17.81;46.87;102198.88;5032341;28;8841;-65
2022/06/02 12:21:34;;;;;;;;;5.67;5.00;;;;;17.78;47.26;102197.44;5032094;28;9017;-65
2022/06/02 12:24:25;;;;;;;;;6.33;6.00;;;;;17.71;47.12;102188.38;5032043;28;8941;-65
2022/06/02 12:27:32;;;;;;;;;5.25;5.25;;;;;17.74;47.09;102178.94;5031268;28;9012;-66
2022/06/02 12:30:23;;;;;;;;;8.67;6.00;;;;;17.80;47.19;102191.75;5032016;28;8926;-65
2022/06/02 12:33:06;;;;;;;;;6.67;5.67;;;;;17.90;47.62;102188.59;5029346;28;8997;-64
2022/06/02 12:36:09;;;;;;;;;7.00;7.00;;;;;17.95;47.24;102186.09;5027650;28;8952;-67
2022/06/02 12:38:58;;;;;;;;;7.00;7.00;;;;;17.92;47.22;102198.25;5026123;28;9011;-64
2022/06/02 12:41:38;;;;;;;;;8.50;7.00;;;;;17.83;47.52;102187.78;5031833;28;9094;-63
2022/06/02 12:44:32;;;;;;;;;4.00;4.00;;;;;17.77;48.06;102182.09;5031317;28;8844;-64
2022/06/02 12:47:25;;;;;;;;;7.00;7.00;;;;;17.82;47.19;102184.19;5031434;28;8841;-65
2022/06/02 12:50:19;;;;;;;;;7.00;7.00;;;;;17.71;48.17;102191.09;5030638;28;8915;-65
2022/06/02 12:52:59;;;;;;;;;9.25;7.50;;;;;17.74;48.08;102193.44;5031660;28;8993;-65
2022/06/02 12:56:02;;;;;;;;;5.50;5.50;;;;;17.91;47.78;102184.84;5030644;28;8824;-65
2022/06/02 12:58:45;;;;;;;;;6.67;5.00;;;;;17.99;46.77;102190.09;5031169;28;9559;-64
2022/06/02 13:01:25;;;;;;;;;3.50;3.50;;;;;18.05;46.85;102186.50;5028135;28;8920;-64
2022/06/02 13:04:09;;;;;;;;;3.75;3.00;;;;;18.14;46.99;102193.41;5030475;28;8862;-64
2022/06/02 13:06:53;;;;;;;;;7.00;6.00;;;;;18.07;46.38;102191.72;5030952;28;8808;-65